Time;durP1;ratioP1;P1;durP2;ratioP2;P2;SDS_P1;SDS_P2;PMS_P1;PMS_P2;Temp;Humidity;BMP_temperature;BMP_pressure;BME280_temperature;BME280_humidity;BME280_pressure;Samples;Min_cycle;Max_cycle;Signal;HPM_P1;HPM_P2
2023/12/15 06:01:03;;;;;;;13.60;5.90;;;;;;;;;;5715015;22;20522;-77
2023/12/15 06:03:28;;;;;;;12.37;6.43;;;;;;;;;;4996466;28;20815;-77
2023/12/15 06:05:54;;;;;;;13.33;5.90;;;;;;;;;;4978814;28;20502;-77
2023/12/15 06:08:20;;;;;;;14.70;6.73;;;;;;;;;;4999923;28;20905;-77
2023/12/15 06:10:48;;;;;;;14.00;6.40;;;;;;;;;;4999262;28;20435;-78
2023/12/15 06:13:14;;;;;;;11.97;6.47;;;;;;;;;;4980159;28;20438;-77
2023/12/15 06:15:40;;;;;;;12.73;6.20;;;;;;;;;;4994302;28;20797;-76
2023/12/15 06:18:06;;;;;;;15.97;7.37;;;;;;;;;;4977358;28;20493;-77
2023/12/15 06:20:32;;;;;;;16.07;7.20;;;;;;;;;;4995182;28;20483;-78
2023/12/15 06:22:58;;;;;;;14.63;7.20;;;;;;;;;;4994969;28;20788;-77
2023/12/15 06:25:24;;;;;;;14.70;7.60;;;;;;;;;;4994941;28;20752;-77
2023/12/15 06:27:50;;;;;;;13.10;7.33;;;;;;;;;;4994726;28;20898;-77
2023/12/15 06:30:16;;;;;;;12.83;6.80;;;;;;;;;;4993605;28;20925;-77
2023/12/15 06:32:42;;;;;;;20.80;10.20;;;;;;;;;;4978004;28;20463;-76
2023/12/15 06:35:08;;;;;;;18.63;9.33;;;;;;;;;;4998882;28;20782;-77
2023/12/15 06:37:34;;;;;;;17.93;8.93;;;;;;;;;;4982137;28;20414;-76
2023/12/15 06:40:00;;;;;;;11.30;6.73;;;;;;;;;;4999278;28;20887;-76
2023/12/15 06:42:26;;;;;;;12.70;7.00;;;;;;;;;;4981657;28;20970;-76
2023/12/15 06:44:52;;;;;;;18.33;7.90;;;;;;;;;;4984525;28;20423;-76
2023/12/15 06:47:18;;;;;;;15.57;7.17;;;;;;;;;;4977018;28;20423;-77
2023/12/15 06:49:44;;;;;;;13.50;6.57;;;;;;;;;;4976219;28;20419;-73
2023/12/15 06:52:09;;;;;;;19.47;7.97;;;;;;;;;;4974699;28;20463;-73
2023/12/15 06:54:39;;;;;;;14.97;7.73;;;;;;;;;;4974798;28;20412;-74
2023/12/15 06:57:06;;;;;;;12.97;7.07;;;;;;;;;;4977110;28;20440;-73
2023/12/15 06:59:32;;;;;;;15.93;6.20;;;;;;;;;;4977886;28;20431;-71
2023/12/15 07:01:58;;;;;;;16.10;9.20;;;;;;;;;;4976844;28;20463;-75
2023/12/15 07:04:24;;;;;;;16.73;7.30;;;;;;;;;;4975749;28;20423;-78
2023/12/15 07:06:50;;;;;;;18.77;7.73;;;;;;;;;;4957632;28;20503;-77
2023/12/15 07:09:16;;;;;;;14.53;7.03;;;;;;;;;;4982352;28;20430;-77
2023/12/15 07:11:41;;;;;;;10.73;7.07;;;;;;;;;;4995765;28;20466;-77
2023/12/15 07:14:07;;;;;;;16.77;7.53;;;;;;;;;;4987939;28;20423;-78
2023/12/15 07:16:33;;;;;;;14.30;7.37;;;;;;;;;;4979237;28;20756;-77
2023/12/15 07:18:59;;;;;;;14.90;7.17;;;;;;;;;;4962048;28;20420;-77
2023/12/15 07:21:26;;;;;;;12.97;7.13;;;;;;;;;;4977779;28;20447;-77
2023/12/15 07:23:52;;;;;;;13.13;6.10;;;;;;;;;;4961448;28;20424;-77
2023/12/15 07:26:18;;;;;;;17.40;7.73;;;;;;;;;;4987844;28;20422;-77
2023/12/15 07:28:44;;;;;;;19.43;7.77;;;;;;;;;;4978043;28;20423;-78
2023/12/15 07:31:10;;;;;;;13.47;6.97;;;;;;;;;;5003802;28;20458;-78
2023/12/15 07:33:36;;;;;;;13.40;7.70;;;;;;;;;;4993680;28;20912;-74
2023/12/15 07:36:02;;;;;;;17.30;9.10;;;;;;;;;;5007321;28;20773;-72
2023/12/15 07:38:28;;;;;;;29.93;12.20;;;;;;;;;;4975751;28;20419;-73
2023/12/15 07:40:54;;;;;;;19.33;9.07;;;;;;;;;;4993028;28;20861;-72
2023/12/15 07:43:20;;;;;;;16.67;7.30;;;;;;;;;;4993637;28;20469;-76
2023/12/15 07:45:46;;;;;;;19.77;8.47;;;;;;;;;;5003909;28;20415;-79
2023/12/15 07:48:13;;;;;;;13.57;7.00;;;;;;;;;;4988528;28;20477;-79
2023/12/15 07:50:39;;;;;;;15.00;7.97;;;;;;;;;;5006060;28;20435;-79
2023/12/15 07:53:05;;;;;;;14.77;6.50;;;;;;;;;;5002567;28;20466;-79
2023/12/15 07:55:31;;;;;;;15.07;7.40;;;;;;;;;;4988947;28;20434;-78
2023/12/15 07:57:57;;;;;;;23.13;8.50;;;;;;;;;;4990631;28;20403;-78
2023/12/15 08:00:23;;;;;;;18.43;8.20;;;;;;;;;;4978755;28;20425;-77
2023/12/15 08:02:49;;;;;;;20.23;7.77;;;;;;;;;;4993839;28;20790;-78
2023/12/15 08:05:17;;;;;;;21.30;7.93;;;;;;;;;;4993503;28;20423;-78
2023/12/15 08:07:43;;;;;;;21.00;8.50;;;;;;;;;;4976753;28;20530;-78
2023/12/15 08:10:10;;;;;;;16.00;8.43;;;;;;;;;;4995341;28;20426;-77
2023/12/15 08:12:35;;;;;;;20.97;9.53;;;;;;;;;;5005465;28;20578;-77
2023/12/15 08:15:01;;;;;;;20.50;9.13;;;;;;;;;;5000179;28;20407;-79
2023/12/15 08:17:27;;;;;;;18.83;9.00;;;;;;;;;;4995707;28;20411;-77
2023/12/15 08:19:53;;;;;;;15.87;7.37;;;;;;;;;;4985446;28;20545;-76
2023/12/15 08:22:19;;;;;;;28.73;9.47;;;;;;;;;;5002875;28;20439;-76
2023/12/15 08:24:45;;;;;;;20.17;8.53;;;;;;;;;;5000018;28;20414;-76
2023/12/15 08:27:12;;;;;;;20.50;7.97;;;;;;;;;;5004028;28;20477;-77
2023/12/15 08:29:38;;;;;;;21.53;9.30;;;;;;;;;;5010816;28;20415;-77
2023/12/15 08:32:04;;;;;;;20.60;8.57;;;;;;;;;;5011155;28;20477;-79
2023/12/15 08:34:32;;;;;;;20.63;8.23;;;;;;;;;;4997118;28;20438;-78
2023/12/15 08:36:57;;;;;;;18.03;8.37;;;;;;;;;;5004430;28;20868;-77
2023/12/15 08:39:23;;;;;;;19.03;9.33;;;;;;;;;;5006859;28;20407;-78
2023/12/15 08:41:49;;;;;;;14.10;8.73;;;;;;;;;;4992375;28;20462;-79
2023/12/15 08:44:15;;;;;;;16.20;8.77;;;;;;;;;;5005976;28;20422;-78
2023/12/15 08:46:42;;;;;;;15.83;8.10;;;;;;;;;;4998639;28;20586;-75
2023/12/15 08:49:08;;;;;;;19.20;8.37;;;;;;;;;;4999373;28;20427;-75
2023/12/15 08:51:34;;;;;;;17.10;8.90;;;;;;;;;;4996483;28;21041;-75
2023/12/15 08:54:00;;;;;;;17.87;8.57;;;;;;;;;;4980931;28;20783;-75
2023/12/15 08:56:26;;;;;;;18.23;9.27;;;;;;;;;;4999219;28;20465;-75
2023/12/15 08:58:52;;;;;;;19.00;8.57;;;;;;;;;;4980110;28;20950;-74
2023/12/15 09:01:18;;;;;;;19.10;8.37;;;;;;;;;;4979494;28;20461;-75
2023/12/15 09:03:44;;;;;;;14.77;8.30;;;;;;;;;;4997652;28;20486;-74
2023/12/15 09:06:11;;;;;;;16.50;8.53;;;;;;;;;;4996390;28;20870;-74
2023/12/15 09:08:38;;;;;;;21.90;10.70;;;;;;;;;;4996492;28;20414;-75
2023/12/15 09:11:05;;;;;;;21.20;10.43;;;;;;;;;;5007172;28;20431;-77
2023/12/15 09:13:32;;;;;;;17.53;8.80;;;;;;;;;;4986712;28;20492;-77
2023/12/15 09:15:58;;;;;;;17.03;8.43;;;;;;;;;;4987782;28;20419;-77
2023/12/15 09:18:24;;;;;;;21.27;10.10;;;;;;;;;;5000169;28;20411;-76
2023/12/15 09:20:49;;;;;;;15.90;8.47;;;;;;;;;;4998246;28;20771;-78
2023/12/15 09:23:15;;;;;;;18.03;8.10;;;;;;;;;;5000530;28;20411;-78
2023/12/15 09:25:42;;;;;;;16.23;8.73;;;;;;;;;;5000267;28;20450;-78
2023/12/15 09:28:09;;;;;;;19.90;8.80;;;;;;;;;;4988251;28;20407;-78
2023/12/15 09:30:35;;;;;;;13.90;8.17;;;;;;;;;;4992206;28;20446;-78
2023/12/15 09:33:01;;;;;;;22.80;9.77;;;;;;;;;;5008061;28;20569;-76
2023/12/15 09:35:27;;;;;;;18.77;8.00;;;;;;;;;;5006471;28;20423;-76
2023/12/15 09:37:53;;;;;;;19.40;9.13;;;;;;;;;;4999347;28;20411;-77
2023/12/15 09:40:25;;;;;;;18.97;9.30;;;;;;;;;;4998628;28;20442;-76
2023/12/15 09:42:51;;;;;;;16.10;8.40;;;;;;;;;;4999503;28;20852;-79
2023/12/15 09:45:17;;;;;;;18.80;8.67;;;;;;;;;;5003453;28;20505;-78
2023/12/15 09:47:46;;;;;;;17.73;9.30;;;;;;;;;;4986436;28;20446;-78
2023/12/15 09:50:12;;;;;;;21.80;8.40;;;;;;;;;;5003553;28;20442;-79
2023/12/15 09:52:42;;;;;;;13.40;7.13;;;;;;;;;;5004997;28;20477;-79
2023/12/15 09:55:09;;;;;;;15.50;8.90;;;;;;;;;;4989514;28;20427;-77
2023/12/15 09:57:35;;;;;;;20.87;10.10;;;;;;;;;;4990124;28;20881;-78
2023/12/15 10:00:01;;;;;;;15.93;8.87;;;;;;;;;;5001611;28;20729;-77
2023/12/15 10:02:27;;;;;;;21.87;10.10;;;;;;;;;;4989507;28;20451;-77
2023/12/15 10:04:53;;;;;;;16.83;7.97;;;;;;;;;;4959163;28;20420;-77
2023/12/15 10:07:19;;;;;;;20.10;8.90;;;;;;;;;;4962566;28;20782;-77
2023/12/15 10:09:45;;;;;;;16.90;8.60;;;;;;;;;;4977209;28;20415;-77
2023/12/15 10:12:11;;;;;;;18.73;9.63;;;;;;;;;;4977087;28;20466;-77
2023/12/15 10:14:38;;;;;;;12.67;7.33;;;;;;;;;;4959216;28;20489;-77
2023/12/15 10:17:04;;;;;;;19.27;9.63;;;;;;;;;;4976947;28;20416;-79
2023/12/15 10:19:30;;;;;;;17.60;9.07;;;;;;;;;;4960989;28;20424;-79
2023/12/15 10:21:56;;;;;;;16.10;9.07;;;;;;;;;;4960614;28;20563;-79
2023/12/15 10:24:25;;;;;;;17.27;10.10;;;;;;;;;;4978379;28;20416;-78
2023/12/15 10:26:51;;;;;;;17.03;7.80;;;;;;;;;;4960107;28;20432;-79
2023/12/15 10:29:23;;;;;;;16.93;7.60;;;;;;;;;;4981925;28;20938;-79
2023/12/15 10:31:51;;;;;;;15.57;8.00;;;;;;;;;;4986463;28;20473;-79
2023/12/15 10:34:17;;;;;;;16.33;9.30;;;;;;;;;;5004426;28;20411;-79
2023/12/15 10:36:47;;;;;;;12.37;6.43;;;;;;;;;;5002199;28;20416;-78
2023/12/15 10:39:18;;;;;;;16.80;8.57;;;;;;;;;;4994473;28;20411;-79
2023/12/15 10:41:45;;;;;;;14.10;8.80;;;;;;;;;;4977363;28;20514;-78
2023/12/15 10:44:14;;;;;;;13.40;7.40;;;;;;;;;;4975927;28;20419;-77
2023/12/15 10:46:41;;;;;;;15.43;8.83;;;;;;;;;;4959165;28;20424;-77
2023/12/15 10:49:07;;;;;;;14.73;8.10;;;;;;;;;;4989803;28;20797;-78
2023/12/15 10:51:34;;;;;;;12.57;6.20;;;;;;;;;;4966430;28;20460;-76
2023/12/15 10:54:01;;;;;;;12.50;7.43;;;;;;;;;;4969227;28;20416;-76
2023/12/15 10:56:27;;;;;;;15.43;7.80;;;;;;;;;;4983614;28;20464;-76
2023/12/15 10:58:53;;;;;;;21.27;8.70;;;;;;;;;;4971205;28;20446;-78
2023/12/15 11:01:20;;;;;;;19.17;8.40;;;;;;;;;;4990822;28;20465;-78
2023/12/15 11:03:46;;;;;;;13.13;6.70;;;;;;;;;;4969744;28;20474;-78
2023/12/15 11:06:13;;;;;;;12.70;7.13;;;;;;;;;;4986014;28;20419;-77
2023/12/15 11:08:39;;;;;;;13.10;7.50;;;;;;;;;;5008691;28;20411;-79
2023/12/15 11:11:08;;;;;;;15.10;7.50;;;;;;;;;;4996613;28;20555;-77
2023/12/15 11:13:52;;;;;;;14.33;8.20;;;;;;;;;;4998695;28;20748;-74
2023/12/15 11:16:19;;;;;;;13.57;6.40;;;;;;;;;;4980021;28;20490;-78
2023/12/15 11:18:45;;;;;;;13.73;7.40;;;;;;;;;;4995837;28;20438;-77
2023/12/15 11:21:11;;;;;;;16.17;8.17;;;;;;;;;;4993822;28;20439;-76
2023/12/15 11:23:56;;;;;;;11.50;6.73;;;;;;;;;;4984648;28;20475;-79
2023/12/15 11:26:26;;;;;;;15.37;6.23;;;;;;;;;;4973999;28;20776;-79
2023/12/15 11:28:52;;;;;;;11.87;5.93;;;;;;;;;;4975672;28;20455;-72
2023/12/15 11:31:23;;;;;;;16.40;5.33;;;;;;;;;;4975446;28;20467;-72
2023/12/15 11:33:49;;;;;;;9.63;5.40;;;;;;;;;;4976204;28;20427;-73
2023/12/15 11:36:16;;;;;;;6.47;4.17;;;;;;;;;;4956568;28;20937;-76
2023/12/15 11:38:43;;;;;;;12.47;5.80;;;;;;;;;;4974059;28;20419;-75
2023/12/15 11:41:10;;;;;;;11.87;4.40;;;;;;;;;;4990041;28;20775;-75
2023/12/15 11:43:36;;;;;;;10.73;4.60;;;;;;;;;;4993583;28;20493;-76
2023/12/15 11:46:05;;;;;;;10.23;5.13;;;;;;;;;;4992724;28;20961;-76
2023/12/15 11:48:33;;;;;;;7.47;4.50;;;;;;;;;;4993411;28;20490;-75
2023/12/15 11:50:59;;;;;;;6.03;4.87;;;;;;;;;;4993096;28;21067;-75
2023/12/15 11:53:26;;;;;;;7.17;4.40;;;;;;;;;;4993393;28;20427;-76
2023/12/15 11:55:53;;;;;;;7.83;4.40;;;;;;;;;;4988127;28;20518;-77
2023/12/15 11:58:19;;;;;;;8.10;4.80;;;;;;;;;;4958834;28;20419;-76
2023/12/15 12:00:45;;;;;;;8.03;4.10;;;;;;;;;;4983445;28;20471;-77
2023/12/15 12:03:19;;;;;;;9.90;5.40;;;;;;;;;;4987601;28;20458;-77
2023/12/15 12:05:46;;;;;;;9.00;4.53;;;;;;;;;;4978659;28;20402;-73
2023/12/15 12:08:12;;;;;;;9.97;4.20;;;;;;;;;;4973255;28;20420;-72
2023/12/15 12:10:39;;;;;;;8.50;4.70;;;;;;;;;;4982056;28;20518;-73
2023/12/15 12:13:06;;;;;;;6.53;4.07;;;;;;;;;;4990721;28;20880;-72
2023/12/15 12:15:33;;;;;;;9.13;4.67;;;;;;;;;;4985070;28;20473;-72
2023/12/15 12:17:59;;;;;;;6.03;4.90;;;;;;;;;;4956604;28;20941;-71
2023/12/15 12:20:28;;;;;;;5.10;3.50;;;;;;;;;;4978984;28;20454;-71
2023/12/15 12:22:56;;;;;;;8.73;4.57;;;;;;;;;;4977117;28;20423;-77
2023/12/15 12:25:22;;;;;;;8.77;4.30;;;;;;;;;;4973653;28;20427;-79
2023/12/15 12:27:50;;;;;;;10.90;3.50;;;;;;;;;;4972283;28;20915;-76
2023/12/15 12:30:17;;;;;;;7.00;4.17;;;;;;;;;;4973485;28;20422;-77
2023/12/15 12:32:43;;;;;;;4.93;3.57;;;;;;;;;;4973092;28;20498;-76
2023/12/15 12:35:10;;;;;;;6.73;3.70;;;;;;;;;;4972776;28;20475;-75
2023/12/15 12:37:36;;;;;;;5.67;3.17;;;;;;;;;;4973136;28;20826;-76
2023/12/15 12:40:03;;;;;;;9.57;3.67;;;;;;;;;;4967989;28;20789;-75
2023/12/15 12:42:30;;;;;;;7.20;4.67;;;;;;;;;;4975273;28;20447;-75
2023/12/15 12:44:56;;;;;;;4.13;3.23;;;;;;;;;;4992716;28;20418;-74
2023/12/15 12:47:22;;;;;;;10.50;4.20;;;;;;;;;;4992871;28;20415;-77
2023/12/15 12:49:48;;;;;;;4.13;2.80;;;;;;;;;;4992057;28;20783;-77
2023/12/15 12:52:14;;;;;;;6.60;3.77;;;;;;;;;;4993489;28;20880;-76
2023/12/15 12:54:40;;;;;;;6.90;3.87;;;;;;;;;;4978450;28;21046;-78
2023/12/15 12:57:09;;;;;;;6.13;3.33;;;;;;;;;;4960673;28;20447;-78
2023/12/15 12:59:36;;;;;;;5.60;3.50;;;;;;;;;;4973843;28;20416;-77
2023/12/15 13:02:02;;;;;;;13.93;5.30;;;;;;;;;;4980995;28;20989;-76
2023/12/15 13:04:28;;;;;;;10.20;4.33;;;;;;;;;;4992962;28;20419;-73
2023/12/15 13:06:54;;;;;;;5.77;3.60;;;;;;;;;;4992152;28;20423;-75
2023/12/15 13:09:20;;;;;;;8.23;3.67;;;;;;;;;;4973607;28;20503;-75
2023/12/15 13:11:47;;;;;;;5.23;3.10;;;;;;;;;;4990350;28;20922;-76
2023/12/15 13:14:13;;;;;;;8.20;3.53;;;;;;;;;;4992132;28;20514;-77
2023/12/15 13:16:39;;;;;;;7.33;2.93;;;;;;;;;;4991912;28;20514;-75
2023/12/15 13:19:05;;;;;;;8.03;3.40;;;;;;;;;;4991865;28;20415;-76
2023/12/15 13:21:32;;;;;;;5.30;3.13;;;;;;;;;;4991444;28;20981;-77
2023/12/15 13:23:58;;;;;;;6.60;3.33;;;;;;;;;;4991496;28;20415;-75
2023/12/15 13:26:24;;;;;;;5.27;2.50;;;;;;;;;;4991688;28;20426;-78
2023/12/15 13:28:50;;;;;;;4.17;2.70;;;;;;;;;;4992022;28;20411;-76
2023/12/15 13:31:17;;;;;;;4.30;2.90;;;;;;;;;;4991922;28;20430;-77
2023/12/15 13:33:49;;;;;;;9.70;3.00;;;;;;;;;;4992125;28;20817;-75
2023/12/15 13:36:18;;;;;;;7.67;2.57;;;;;;;;;;4991803;28;20415;-75
2023/12/15 13:38:45;;;;;;;4.27;2.80;;;;;;;;;;4994351;28;20883;-77
2023/12/15 13:41:12;;;;;;;6.07;2.57;;;;;;;;;;4959783;28;20448;-73
2023/12/15 13:43:38;;;;;;;4.80;2.57;;;;;;;;;;4976813;28;20419;-75
2023/12/15 13:46:04;;;;;;;2.83;2.30;;;;;;;;;;4958094;28;20511;-74
2023/12/15 13:48:30;;;;;;;3.10;2.40;;;;;;;;;;4975696;28;20412;-74
2023/12/15 13:50:57;;;;;;;5.77;2.33;;;;;;;;;;4975386;28;20866;-75
2023/12/15 13:53:23;;;;;;;7.47;2.80;;;;;;;;;;4975711;28;20472;-74
2023/12/15 13:55:49;;;;;;;2.20;2.00;;;;;;;;;;4980407;28;20426;-74
2023/12/15 13:58:15;;;;;;;3.80;2.33;;;;;;;;;;4993039;28;20419;-73
2023/12/15 14:00:41;;;;;;;4.27;2.47;;;;;;;;;;4994645;28;20469;-74
2023/12/15 14:03:07;;;;;;;3.17;2.33;;;;;;;;;;4995172;28;20418;-74
2023/12/15 14:05:33;;;;;;;5.90;1.73;;;;;;;;;;4970605;28;20433;-75
2023/12/15 14:07:59;;;;;;;2.83;2.10;;;;;;;;;;4993383;28;20915;-76
2023/12/15 14:10:25;;;;;;;4.13;2.17;;;;;;;;;;4986671;28;20424;-72
2023/12/15 14:12:51;;;;;;;3.10;1.67;;;;;;;;;;4975279;28;20463;-72
2023/12/15 14:15:17;;;;;;;5.73;2.00;;;;;;;;;;4976429;28;21100;-73
2023/12/15 14:17:43;;;;;;;4.30;2.00;;;;;;;;;;4975131;28;20466;-73
2023/12/15 14:20:10;;;;;;;4.40;2.70;;;;;;;;;;4974793;28;20846;-73
2023/12/15 14:22:36;;;;;;;5.20;2.97;;;;;;;;;;4976040;28;20911;-74
2023/12/15 14:25:06;;;;;;;3.10;2.60;;;;;;;;;;4974839;28;20419;-74
2023/12/15 14:27:32;;;;;;;6.17;2.50;;;;;;;;;;4957609;28;20427;-73
2023/12/15 14:29:59;;;;;;;8.27;3.00;;;;;;;;;;4976761;28;20908;-74
2023/12/15 14:32:25;;;;;;;4.13;2.53;;;;;;;;;;4995297;28;20462;-72
2023/12/15 14:34:51;;;;;;;3.77;2.40;;;;;;;;;;4995106;28;20482;-72
2023/12/15 14:37:19;;;;;;;4.17;2.50;;;;;;;;;;4994130;28;20419;-73
2023/12/15 14:39:46;;;;;;;4.60;2.97;;;;;;;;;;4976390;28;20420;-73
2023/12/15 14:42:12;;;;;;;2.47;2.37;;;;;;;;;;4976679;28;20453;-73
2023/12/15 14:44:38;;;;;;;5.47;2.90;;;;;;;;;;4994562;28;20419;-72
2023/12/15 14:47:04;;;;;;;3.30;2.20;;;;;;;;;;4994141;28;20749;-72
2023/12/15 14:49:30;;;;;;;5.90;3.20;;;;;;;;;;4993206;28;20461;-72
2023/12/15 14:51:55;;;;;;;6.17;2.77;;;;;;;;;;4993658;28;20950;-73
2023/12/15 14:54:21;;;;;;;3.70;2.80;;;;;;;;;;4993951;28;20416;-73
2023/12/15 14:56:47;;;;;;;9.50;2.90;;;;;;;;;;4996599;28;20415;-72
2023/12/15 14:59:13;;;;;;;12.03;2.70;;;;;;;;;;4995943;28;20418;-72
2023/12/15 15:01:40;;;;;;;6.50;2.83;;;;;;;;;;4994379;28;20454;-73
2023/12/15 15:04:06;;;;;;;6.37;3.17;;;;;;;;;;4993975;28;20411;-72
2023/12/15 15:06:32;;;;;;;5.47;3.50;;;;;;;;;;4993714;28;20920;-73
2023/12/15 15:08:57;;;;;;;6.87;3.17;;;;;;;;;;4976682;28;20419;-73
2023/12/15 15:11:23;;;;;;;5.40;3.27;;;;;;;;;;4993261;28;20434;-73
2023/12/15 15:13:49;;;;;;;5.47;3.63;;;;;;;;;;4994025;28;20419;-72
2023/12/15 15:16:16;;;;;;;5.07;2.87;;;;;;;;;;4993703;28;20415;-73
2023/12/15 15:18:42;;;;;;;6.70;3.17;;;;;;;;;;4987897;28;20427;-75
2023/12/15 15:21:08;;;;;;;10.13;3.30;;;;;;;;;;4975001;28;20772;-74
2023/12/15 15:23:34;;;;;;;4.07;2.60;;;;;;;;;;4974399;28;20416;-75
2023/12/15 15:26:00;;;;;;;4.40;3.00;;;;;;;;;;4956719;28;20423;-75
2023/12/15 15:28:26;;;;;;;6.63;3.30;;;;;;;;;;4956757;28;20775;-74
2023/12/15 15:30:52;;;;;;;5.40;3.37;;;;;;;;;;4973752;28;20439;-74
2023/12/15 15:33:18;;;;;;;6.63;3.07;;;;;;;;;;4959320;28;20471;-72
2023/12/15 15:35:44;;;;;;;7.23;3.23;;;;;;;;;;4973925;28;20411;-74
2023/12/15 15:38:10;;;;;;;6.40;3.70;;;;;;;;;;4973402;28;20462;-74
2023/12/15 15:40:36;;;;;;;8.47;3.37;;;;;;;;;;4973488;28;20463;-72
2023/12/15 15:43:02;;;;;;;6.50;3.60;;;;;;;;;;4956414;28;20498;-73
2023/12/15 15:45:28;;;;;;;8.13;4.00;;;;;;;;;;4956783;28;20446;-74
2023/12/15 15:47:55;;;;;;;7.63;4.20;;;;;;;;;;4973615;28;20423;-75
2023/12/15 15:50:21;;;;;;;7.97;4.03;;;;;;;;;;4973883;28;20839;-76
2023/12/15 15:52:48;;;;;;;6.17;3.47;;;;;;;;;;4974079;28;20456;-76
2023/12/15 15:55:17;;;;;;;5.70;3.43;;;;;;;;;;4973742;28;20458;-75
2023/12/15 15:57:44;;;;;;;5.20;3.67;;;;;;;;;;4973539;28;20411;-76
2023/12/15 16:00:11;;;;;;;6.70;4.20;;;;;;;;;;4973591;28;20450;-76
2023/12/15 16:02:37;;;;;;;6.33;3.87;;;;;;;;;;4973355;28;20428;-75
2023/12/15 16:05:04;;;;;;;8.70;3.60;;;;;;;;;;4972848;28;20467;-76
2023/12/15 16:07:30;;;;;;;9.00;3.90;;;;;;;;;;4955734;28;20447;-74
2023/12/15 16:09:55;;;;;;;7.63;3.70;;;;;;;;;;4972977;28;20451;-75
2023/12/15 16:12:21;;;;;;;6.77;4.10;;;;;;;;;;4974015;28;20489;-78
2023/12/15 16:14:47;;;;;;;13.67;4.70;;;;;;;;;;4974401;28;20408;-77
2023/12/15 16:17:13;;;;;;;11.60;7.40;;;;;;;;;;4974486;28;20412;-77
2023/12/15 16:19:39;;;;;;;15.20;7.90;;;;;;;;;;4957215;28;20430;-80
2023/12/15 16:22:05;;;;;;;11.20;6.73;;;;;;;;;;4976453;28;20435;-81
2023/12/15 16:24:31;;;;;;;12.13;6.90;;;;;;;;;;4963932;28;20560;-80
2023/12/15 16:26:58;;;;;;;13.30;5.63;;;;;;;;;;4964300;28;20420;-80
2023/12/15 16:29:24;;;;;;;8.23;5.00;;;;;;;;;;4980157;28;20415;-81
2023/12/15 16:31:52;;;;;;;8.20;4.90;;;;;;;;;;4961606;28;20541;-81
2023/12/15 16:34:18;;;;;;;9.00;4.63;;;;;;;;;;4979993;28;20511;-80
2023/12/15 16:36:44;;;;;;;8.30;3.63;;;;;;;;;;4963268;28;20424;-80
2023/12/15 16:39:13;;;;;;;7.30;4.60;;;;;;;;;;4963166;28;20426;-80
2023/12/15 16:41:40;;;;;;;11.53;5.40;;;;;;;;;;4960128;28;20448;-79
2023/12/15 16:44:06;;;;;;;6.40;3.60;;;;;;;;;;4974497;28;20825;-79
2023/12/15 16:46:32;;;;;;;9.60;3.67;;;;;;;;;;4957669;28;20440;-79
2023/12/15 16:48:58;;;;;;;8.93;4.63;;;;;;;;;;4957196;28;20424;-79
2023/12/15 16:51:30;;;;;;;8.53;3.67;;;;;;;;;;4956331;28;20595;-79
2023/12/15 16:53:56;;;;;;;3.70;2.83;;;;;;;;;;4975751;28;20474;-79
2023/12/15 16:56:22;;;;;;;6.27;3.50;;;;;;;;;;4978055;28;20444;-79
2023/12/15 16:58:48;;;;;;;7.47;4.20;;;;;;;;;;4977331;28;20408;-79
2023/12/15 17:01:14;;;;;;;6.87;4.13;;;;;;;;;;4975889;28;20446;-80
2023/12/15 17:03:41;;;;;;;10.70;4.67;;;;;;;;;;4964202;28;20478;-80
2023/12/15 17:06:11;;;;;;;9.73;3.70;;;;;;;;;;4982021;28;20412;-80
2023/12/15 17:08:38;;;;;;;5.40;3.40;;;;;;;;;;4963668;28;20567;-80
2023/12/15 17:11:04;;;;;;;7.03;3.40;;;;;;;;;;4963105;28;20467;-79
2023/12/15 17:13:30;;;;;;;4.23;2.83;;;;;;;;;;4964223;28;20467;-80
2023/12/15 17:15:56;;;;;;;8.40;4.40;;;;;;;;;;4983812;28;20416;-80
2023/12/15 17:18:22;;;;;;;6.73;2.90;;;;;;;;;;4966114;28;20430;-80
2023/12/15 17:20:47;;;;;;;4.97;3.97;;;;;;;;;;4981431;28;20427;-80
2023/12/15 17:23:13;;;;;;;8.50;4.40;;;;;;;;;;4964829;28;20416;-80
2023/12/15 17:25:39;;;;;;;5.33;3.10;;;;;;;;;;4982129;28;20451;-80
2023/12/15 17:28:05;;;;;;;7.60;3.67;;;;;;;;;;4963973;28;20442;-80
2023/12/15 17:30:31;;;;;;;4.43;3.60;;;;;;;;;;4962855;28;20436;-80
2023/12/15 17:32:57;;;;;;;8.53;4.27;;;;;;;;;;4978553;28;20474;-78
2023/12/15 17:35:23;;;;;;;7.70;3.80;;;;;;;;;;4977057;28;20427;-78
2023/12/15 17:37:49;;;;;;;8.30;3.80;;;;;;;;;;4977387;28;20414;-79
2023/12/15 17:40:15;;;;;;;6.27;3.23;;;;;;;;;;4957733;28;20770;-79
2023/12/15 17:42:41;;;;;;;7.37;4.03;;;;;;;;;;4975296;28;20412;-79
2023/12/15 17:45:07;;;;;;;9.40;4.73;;;;;;;;;;4976327;28;20411;-79
2023/12/15 17:47:34;;;;;;;11.17;4.67;;;;;;;;;;4976572;28;20412;-79
2023/12/15 17:50:00;;;;;;;8.30;4.73;;;;;;;;;;4976222;28;20408;-79
2023/12/15 17:52:26;;;;;;;10.83;4.50;;;;;;;;;;4975174;28;20454;-79
2023/12/15 17:54:52;;;;;;;7.30;5.10;;;;;;;;;;4975901;28;20544;-79
2023/12/15 17:57:18;;;;;;;14.50;5.70;;;;;;;;;;4975429;28;20411;-79
2023/12/15 17:59:44;;;;;;;9.10;4.60;;;;;;;;;;4958002;28;20758;-78
2023/12/15 18:02:10;;;;;;;10.23;5.60;;;;;;;;;;4974694;28;20444;-79
2023/12/15 18:04:36;;;;;;;9.70;4.87;;;;;;;;;;4975113;28;20499;-78
2023/12/15 18:07:03;;;;;;;6.17;4.47;;;;;;;;;;4975156;28;20420;-79
2023/12/15 18:09:29;;;;;;;18.03;7.57;;;;;;;;;;4974767;28;20416;-78
2023/12/15 18:11:55;;;;;;;14.80;7.70;;;;;;;;;;4974183;28;20538;-79
2023/12/15 18:14:21;;;;;;;15.67;8.60;;;;;;;;;;5003044;23;20494;-73
2023/12/15 18:16:47;;;;;;;11.57;7.43;;;;;;;;;;4995783;28;20407;-73
2023/12/15 18:19:16;;;;;;;14.20;8.73;;;;;;;;;;4998415;28;20430;-74
2023/12/15 18:21:42;;;;;;;15.10;8.03;;;;;;;;;;4994631;28;20450;-75
2023/12/15 18:24:08;;;;;;;13.33;8.80;;;;;;;;;;4976653;28;20966;-74
2023/12/15 18:26:35;;;;;;;17.50;8.60;;;;;;;;;;4994436;28;20408;-75
2023/12/15 18:29:01;;;;;;;15.80;9.17;;;;;;;;;;4994901;28;20407;-72
2023/12/15 18:31:27;;;;;;;15.20;8.27;;;;;;;;;;4994650;28;20489;-73
2023/12/15 18:33:53;;;;;;;14.13;8.70;;;;;;;;;;5009657;28;20407;-73
2023/12/15 18:36:19;;;;;;;18.33;10.30;;;;;;;;;;5007617;28;20417;-75
2023/12/15 18:38:47;;;;;;;19.17;9.60;;;;;;;;;;5008143;28;20443;-75
2023/12/15 18:41:14;;;;;;;18.10;10.40;;;;;;;;;;5002000;28;20414;-74
2023/12/15 18:43:40;;;;;;;16.60;9.10;;;;;;;;;;4988971;28;20427;-76
2023/12/15 18:46:08;;;;;;;17.93;9.57;;;;;;;;;;4998349;28;20418;-76
2023/12/15 18:48:34;;;;;;;19.57;9.33;;;;;;;;;;4997935;28;20418;-75
2023/12/15 18:51:00;;;;;;;18.40;11.50;;;;;;;;;;5000723;28;20410;-73
2023/12/15 18:53:26;;;;;;;19.50;9.63;;;;;;;;;;5001032;28;20561;-75
2023/12/15 18:55:52;;;;;;;15.93;9.50;;;;;;;;;;5001242;28;20937;-74
2023/12/15 18:58:18;;;;;;;19.40;10.43;;;;;;;;;;5005533;28;20415;-75
2023/12/15 19:00:47;;;;;;;26.97;11.37;;;;;;;;;;4995734;28;20411;-75
2023/12/15 19:03:13;;;;;;;20.17;11.83;;;;;;;;;;4994875;28;20415;-74
2023/12/15 19:05:39;;;;;;;21.53;11.23;;;;;;;;;;4994719;28;20931;-76
2023/12/15 19:08:05;;;;;;;24.93;11.40;;;;;;;;;;4995536;28;20517;-74
2023/12/15 19:10:31;;;;;;;18.03;10.57;;;;;;;;;;4978629;28;20466;-73
2023/12/15 19:12:57;;;;;;;16.67;10.20;;;;;;;;;;4996116;28;21023;-74
2023/12/15 19:15:25;;;;;;;20.03;10.63;;;;;;;;;;4978193;28;20472;-74
2023/12/15 19:17:51;;;;;;;13.43;8.73;;;;;;;;;;4994337;28;20413;-75
2023/12/15 19:20:17;;;;;;;18.57;9.67;;;;;;;;;;4994059;28;20489;-75
2023/12/15 19:22:43;;;;;;;14.43;7.93;;;;;;;;;;4994599;28;20415;-74
2023/12/15 19:25:09;;;;;;;14.17;8.20;;;;;;;;;;4994269;28;20946;-73
2023/12/15 19:27:36;;;;;;;16.00;8.23;;;;;;;;;;4994266;28;20421;-73
2023/12/15 19:30:04;;;;;;;12.70;8.27;;;;;;;;;;4993081;28;20411;-74
2023/12/15 19:32:30;;;;;;;14.27;8.33;;;;;;;;;;4994650;28;20455;-73
2023/12/15 19:34:56;;;;;;;16.43;8.07;;;;;;;;;;4993820;28;20945;-75
2023/12/15 19:37:22;;;;;;;19.13;8.00;;;;;;;;;;4993615;28;20399;-72
2023/12/15 19:39:48;;;;;;;13.60;7.33;;;;;;;;;;4993712;28;20414;-75
2023/12/15 19:42:14;;;;;;;17.37;7.43;;;;;;;;;;4993523;28;20802;-75
2023/12/15 19:44:42;;;;;;;14.23;7.97;;;;;;;;;;4993606;28;20922;-73
2023/12/15 19:47:09;;;;;;;11.83;7.43;;;;;;;;;;4995148;28;20443;-75
2023/12/15 19:49:35;;;;;;;13.97;7.73;;;;;;;;;;4993925;28;20469;-75
2023/12/15 19:52:01;;;;;;;13.73;8.03;;;;;;;;;;4994102;28;20470;-74
2023/12/15 19:54:27;;;;;;;20.00;9.70;;;;;;;;;;4994300;28;20419;-74
2023/12/15 19:56:53;;;;;;;11.67;6.40;;;;;;;;;;4994512;28;20410;-73
2023/12/15 19:59:21;;;;;;;14.70;6.90;;;;;;;;;;4999143;28;20415;-74
2023/12/15 20:01:47;;;;;;;14.50;6.63;;;;;;;;;;4993328;28;20461;-73
2023/12/15 20:04:13;;;;;;;15.30;8.23;;;;;;;;;;4976225;28;20446;-74
2023/12/15 20:06:39;;;;;;;12.30;6.93;;;;;;;;;;4993148;28;20419;-76
2023/12/15 20:09:05;;;;;;;15.77;7.53;;;;;;;;;;4993482;28;20419;-75
2023/12/15 20:11:36;;;;;;;16.50;9.33;;;;;;;;;;4993091;28;20425;-73
2023/12/15 20:14:04;;;;;;;15.63;7.27;;;;;;;;;;4993232;28;20795;-73
2023/12/15 20:16:30;;;;;;;13.90;7.10;;;;;;;;;;4993963;28;20490;-74
2023/12/15 20:18:56;;;;;;;14.60;7.57;;;;;;;;;;4992668;28;20415;-74
2023/12/15 20:21:22;;;;;;;10.10;6.00;;;;;;;;;;4974892;28;20449;-74
2023/12/15 20:23:48;;;;;;;15.33;6.87;;;;;;;;;;4992949;28;20414;-74
2023/12/15 20:26:14;;;;;;;11.73;6.47;;;;;;;;;;4992593;28;20403;-73
2023/12/15 20:28:40;;;;;;;13.90;7.13;;;;;;;;;;4992473;28;20853;-75